Midnight Wolf — HO7969 — position and weather

sailwx.info

Track history (hours):
 
Tides and Currents Weather Stations Pressure Air Temp Water Temp Dewpoint Dewpoint Depression Visibility Wind Speed Wind Dir Waves Ship Positions

Midnight Wolf

Last reported at 2016-Jul-25 16:32 UTC. Time now 2016-Jul-25 17:52 UTC.
Position N 18°24' W 064°37'.

Length 51 m; draft 4 m.

Type: Cargo ship. MMSI: 351880000.

Date/timePositionNaut miles runAvg speedWind from/ knotsBaromVisibWave heightAir tempDewpointWater temp
2016-Jul-25 16:32N 18°24' W 064°37'5 5.2
2016-Jul-25 15:34N 18°20' W 064°39'5 4.5
2016-Jul-25 14:27N 18°17' W 064°44'5 4.5
2016-Jul-25 13:15N 18°17' W 064°50'3 4.7
2016-Jul-25 12:33N 18°18' W 064°53'17 0.6
2016-Jul-24 10:30N 18°24' W 064°37'  
2016-Jul-19 21:11N 18°25' W 064°36'4 6.1
2016-Jul-19 20:32N 18°25' W 064°32'1 0.2
2016-Jul-19 17:19N 18°25' W 064°31'5 5.9
2016-Jul-19 16:32N 18°25' W 064°36'0 0.0
2016-Jul-18 20:05N 18°25' W 064°36'3 5.6
2016-Jul-18 19:33N 18°22' W 064°38'6 5.7
2016-Jul-18 18:32N 18°18' W 064°42'5 4.9
2016-Jul-18 17:27N 18°17' W 064°47'5 5.0
2016-Jul-18 16:33N 18°17' W 064°52'1 0.0
2016-Jul-17 12:16N 18°17' W 064°53'7 6.6
2016-Jul-17 11:15N 18°17' W 064°46'9 5.4
2016-Jul-17 09:33N 18°22' W 064°38'  
Track history (hours):
 
Tides and Currents Weather Stations Pressure Air Temp Water Temp Dewpoint Dewpoint Depression Visibility Wind Speed Wind Dir Waves Ship Positions

Midnight Wolf

Last reported at 2016-Jul-25 16:32 UTC. Time now 2016-Jul-25 17:52 UTC.
Position N 18°24' W 064°37'.

Length 51 m; draft 4 m.

Type: Cargo ship. MMSI: 351880000.

Date/timePositionNaut miles runAvg speedWind from/ knotsBaromVisibWave heightAir tempDewpointWater temp
2016-Jul-25 16:32N 18°24' W 064°37'5 5.2
2016-Jul-25 15:34N 18°20' W 064°39'5 4.5
2016-Jul-25 14:27N 18°17' W 064°44'5 4.5
2016-Jul-25 13:15N 18°17' W 064°50'3 4.7
2016-Jul-25 12:33N 18°18' W 064°53'17 0.6
2016-Jul-24 10:30N 18°24' W 064°37'  
2016-Jul-19 21:11N 18°25' W 064°36'4 6.1
2016-Jul-19 20:32N 18°25' W 064°32'1 0.2
2016-Jul-19 17:19N 18°25' W 064°31'5 5.9
2016-Jul-19 16:32N 18°25' W 064°36'0 0.0
2016-Jul-18 20:05N 18°25' W 064°36'3 5.6
2016-Jul-18 19:33N 18°22' W 064°38'6 5.7
2016-Jul-18 18:32N 18°18' W 064°42'5 4.9
2016-Jul-18 17:27N 18°17' W 064°47'5 5.0
2016-Jul-18 16:33N 18°17' W 064°52'1 0.0
2016-Jul-17 12:16N 18°17' W 064°53'7 6.6
2016-Jul-17 11:15N 18°17' W 064°46'9 5.4
2016-Jul-17 09:33N 18°22' W 064°38'  

Dump ship's entire track history